Terminal Aerodrome Forecast
Issued by NWS Wakefield, VA

Home | Current Version | Previous Version | Text Only | Print | Product List | Glossary On
Versions: 1 2 3 4 5 6 7 8 9 10 11 12 13 14
000
FTUS41 KAKQ 232022 AAA
TAFORF
TAF AMD
KORF 232022Z 2320/2418 05010KT P6SM VCTS BKN040CB OVC120
      TEMPO 2320/2322 VRB20G35KT 1SM TSRA OVC020CB
     FM232200 05007KT 4SM -SHRA BR BKN050 OVC080
     FM240300 08007KT P6SM VCSH OVC040
     FM240600 02005KT P6SM OVC025
     FM241000 04010KT P6SM OVC035=

USA.gov is the U.S. government's official web portal to all federal, state and local government web resources and services.